Portada
METAR-TAF:

METAR-TAF

Aeroports :

Pantel·leria, Itàlia

latitud: 36-49N, longitud: 011-58E, altitud: 191 m

Observació

L'informe es va fer fa 39 minuts, a les 17:50 UTC
Vent 7 kt del Est
Temperatura 16°C
Humitat 48%
Pressió 1019 hPa
Visibilitat 10 km o més
sense núvols per sota de 1500 mi sense presència de cumulonimbus.

METAR: LICG 181750Z 09007KT CAVOK 16/05 Q1019

Hora: 20:29 (18:29 UTC)

Pronòstic

L'informe es va fer fa 4 hores i 29 minuts, a les 14:00 UTC
Pronòstic vàlid del 18 a les 15 UTC al 18 a les 24 UTC
Vent 14 kt del Sud-Est
Visibilitat 10 km o més
Escasses núvols a una alçada de 2000 ft

TAF: LICG 181400Z 1815/1824 14014KT 9999 FEW020

Observacions i pronòstics meteorològics de més de 4000 aeroports (METAR i TAF).

Les estacions disponibles són els punts grocs i vermells al mapa.

Posi el ratolí al punt desitjat per veure el nom de l'estació.

Feu clic per veure les observacions i els pronòstics meteorològics.

Per canviar el mapa: feu clic els botons verds amb una creu de color negre per apropar; al botó verd amb un guió per allunyar la imatge; o en les fletxes verdes per a mapes adjacents.


METAR-TAF: